CheckWX is a tool to help pilots better visualize weather data.  It is not intended as a substitute for an official pre-flight weather briefing.

18:54:12 UTC

EIDW METAR
Dublin Airport
Dublin, Ireland
Current

24 mins ago

EIDW 191830Z 22011KT 170V250 9999 FEW005 BKN020 19/15 Q0999 NOSIG
Observed
Jul-19 @ 18:30 UTC
Wind
  • 220° at 11 KTS
Visibility
10,000+ meters
Flight Rules
MVFR
Cloud Levels
  • Few at 500' AGL
  • Broken at 2,000' AGL
Temperature
19°C / 66°F
Dewpoint
15°C / 59°F
Humidity
78%
Altimeter
29.5" Hg
Pressure
998.92 hPa
Previous

54 mins ago

EIDW 191800Z 21012KT 180V240 9999 FEW005 BKN020 20/16 Q0999 NOSIG
Observed
Jul-19 @ 18:00 UTC
Wind
  • 210° at 12 KTS
Visibility
10,000+ meters
Flight Rules
MVFR
Cloud Levels
  • Few at 500' AGL
  • Broken at 2,000' AGL
Temperature
20°C / 68°F
Dewpoint
16°C / 61°F
Humidity
78%
Altimeter
29.5" Hg
Pressure
998.92 hPa
Previous

1 hour ago

EIDW 191730Z 22012KT 190V250 9999 FEW005 BKN020CB 20/16 Q0999 TEMPO 4000 SHRA
Observed
Jul-19 @ 17:30 UTC
Wind
  • 220° at 12 KTS
Visibility
10,000+ meters
Flight Rules
MVFR
Cloud Levels
  • Few at 500' AGL
  • Broken at 2,000' AGL
Temperature
20°C / 68°F
Dewpoint
16°C / 61°F
Humidity
78%
Altimeter
29.5" Hg
Pressure
998.92 hPa